createdAt,value
2023-01-21T00:02:25.123Z,57.20
2023-01-21T00:04:51.835Z,57.20
2023-01-21T00:07:18.550Z,57.30
2023-01-21T00:09:45.704Z,57.20
2023-01-21T00:12:12.881Z,57.30
2023-01-21T00:14:40.061Z,57.20
2023-01-21T00:17:07.243Z,57.30
2023-01-21T00:19:34.388Z,57.20
2023-01-21T00:22:01.581Z,57.20
2023-01-21T00:24:28.241Z,57.20
2023-01-21T00:26:55.407Z,57.30
2023-01-21T00:29:22.169Z,57.30
2023-01-21T00:31:48.959Z,57.30
2023-01-21T00:34:16.137Z,57.20
2023-01-21T00:36:42.860Z,57.20
2023-01-21T00:39:10.150Z,57.20
2023-01-21T00:41:37.388Z,57.20
2023-01-21T00:44:04.842Z,57.20
2023-01-21T00:46:33.947Z,57.30
2023-01-21T00:49:00.696Z,57.30
2023-01-21T00:51:27.887Z,57.20
2023-01-21T00:53:54.609Z,57.20
2023-01-21T00:56:23.661Z,57.20
2023-01-21T00:58:50.504Z,57.10
2023-01-21T01:01:18.887Z,57.20
2023-01-21T01:03:46.440Z,57.10
2023-01-21T01:06:14.855Z,57.10
2023-01-21T01:08:42.130Z,57.10
2023-01-21T01:11:08.849Z,57.10
2023-01-21T01:13:38.614Z,57.10
2023-01-21T01:16:05.608Z,57.10
2023-01-21T01:18:33.667Z,57.10
2023-01-21T01:21:00.824Z,57.10
2023-01-21T01:23:27.664Z,57.20
2023-01-21T01:25:58.333Z,57.10
2023-01-21T01:28:25.488Z,57.10
2023-01-21T01:30:52.276Z,57.20
2023-01-21T01:33:21.871Z,57.20
2023-01-21T01:35:48.892Z,57.20
2023-01-21T01:38:16.316Z,57.20
2023-01-21T01:40:43.361Z,57.20
2023-01-21T01:43:17.214Z,57.20
2023-01-21T01:45:44.465Z,57.30
2023-01-21T01:48:22.623Z,57.30
2023-01-21T01:50:49.581Z,57.30
2023-01-21T01:53:17.192Z,57.30
2023-01-21T01:55:43.932Z,57.30
2023-01-21T01:58:12.717Z,57.30
2023-01-21T02:00:39.387Z,57.30
2023-01-21T02:03:24.862Z,57.30
2023-01-21T02:05:52.038Z,57.20
2023-01-21T02:08:19.130Z,57.30
2023-01-21T02:10:45.861Z,57.30
2023-01-21T02:13:12.569Z,57.30
2023-01-21T02:15:58.086Z,57.30
2023-01-21T02:18:30.687Z,57.30
2023-01-21T02:20:57.300Z,57.30
2023-01-21T02:23:39.097Z,57.30
2023-01-21T02:26:08.790Z,57.30
2023-01-21T02:28:38.463Z,57.40
2023-01-21T02:31:08.406Z,57.40
2023-01-21T02:33:44.984Z,57.40
2023-01-21T02:36:11.618Z,57.40
2023-01-21T02:38:50.376Z,57.40
2023-01-21T02:41:26.260Z,58.00
2023-01-21T02:44:07.985Z,57.40
2023-01-21T02:46:34.648Z,57.40
2023-01-21T02:49:09.722Z,57.40
2023-01-21T02:51:36.434Z,57.40
2023-01-21T02:54:21.819Z,57.30
2023-01-21T02:56:48.524Z,57.30
2023-01-21T02:59:15.199Z,57.20
2023-01-21T03:01:49.906Z,57.10
2023-01-21T03:04:35.332Z,57.40
2023-01-21T03:07:08.075Z,56.90
2023-01-21T03:09:35.164Z,57.10
2023-01-21T03:12:13.453Z,57.00
2023-01-21T03:14:58.767Z,57.00
2023-01-21T03:17:31.337Z,57.00
2023-01-21T03:20:04.916Z,57.00
2023-01-21T03:22:33.713Z,57.50
2023-01-21T03:25:02.171Z,56.90
2023-01-21T03:27:30.654Z,56.90
2023-01-21T03:29:59.984Z,56.80
2023-01-21T03:32:27.954Z,56.90
2023-01-21T03:34:55.971Z,56.90
2023-01-21T03:37:28.432Z,56.80
2023-01-21T03:39:59.602Z,56.80
2023-01-21T03:42:26.706Z,56.80
2023-01-21T03:44:53.644Z,56.70
2023-01-21T03:47:29.524Z,56.80
2023-01-21T03:49:58.502Z,56.80
2023-01-21T03:52:25.978Z,56.80
2023-01-21T03:54:53.159Z,56.80
2023-01-21T03:57:20.119Z,56.80
2023-01-21T03:59:46.814Z,56.80
2023-01-21T04:02:13.522Z,56.70
2023-01-21T04:04:42.682Z,56.70
2023-01-21T04:07:09.329Z,56.80
2023-01-21T04:09:35.963Z,56.80
2023-01-21T04:12:02.680Z,56.70
2023-01-21T04:14:29.879Z,56.70
2023-01-21T04:16:57.596Z,56.70
2023-01-21T04:19:24.330Z,56.60
2023-01-21T04:21:50.992Z,56.60
2023-01-21T04:24:17.662Z,56.60
2023-01-21T04:26:44.321Z,56.60
2023-01-21T04:29:11.076Z,56.50
2023-01-21T04:31:37.793Z,56.50
2023-01-21T04:34:04.576Z,56.50
2023-01-21T04:36:31.259Z,56.50
2023-01-21T04:38:57.934Z,56.50
2023-01-21T04:41:25.534Z,56.50
2023-01-21T04:43:52.357Z,56.50
2023-01-21T04:46:19.037Z,56.50
2023-01-21T04:48:45.683Z,56.50
2023-01-21T04:51:12.451Z,56.50
2023-01-21T04:53:39.119Z,56.40
2023-01-21T04:56:06.047Z,56.40
2023-01-21T04:58:32.774Z,56.40
2023-01-21T05:00:59.434Z,56.40
2023-01-21T05:03:27.636Z,56.30
2023-01-21T05:05:54.471Z,56.90
2023-01-21T05:08:21.162Z,56.30
2023-01-21T05:10:47.857Z,56.30
2023-01-21T05:13:14.519Z,56.30
2023-01-21T05:15:41.214Z,56.30
2023-01-21T05:18:07.904Z,56.30
2023-01-21T05:20:34.559Z,56.30
2023-01-21T05:23:01.226Z,56.30
2023-01-21T05:25:27.904Z,56.30
2023-01-21T05:27:54.810Z,56.30
2023-01-21T05:30:21.565Z,56.30
2023-01-21T05:32:52.262Z,56.20
2023-01-21T05:35:22.705Z,56.20
2023-01-21T05:37:49.435Z,56.20
2023-01-21T05:40:17.053Z,56.10
2023-01-21T05:42:43.836Z,56.20
2023-01-21T05:45:11.690Z,56.10
2023-01-21T05:47:38.375Z,56.10
2023-01-21T05:50:05.638Z,56.10
2023-01-21T05:52:32.299Z,56.00
2023-01-21T05:55:02.266Z,55.90
2023-01-21T05:57:30.346Z,55.90
2023-01-21T05:59:57.976Z,55.90
2023-01-21T06:02:25.050Z,55.90
2023-01-21T06:04:51.763Z,55.90
2023-01-21T06:07:18.933Z,55.90
2023-01-21T06:09:45.617Z,56.00
2023-01-21T06:12:12.284Z,55.90
2023-01-21T06:14:38.945Z,55.90
2023-01-21T06:17:06.125Z,55.90
2023-01-21T06:19:35.166Z,55.90
2023-01-21T06:22:01.833Z,56.00
2023-01-21T06:24:28.510Z,56.10
2023-01-21T06:26:55.180Z,55.90
2023-01-21T06:29:21.867Z,56.00
2023-01-21T06:31:48.735Z,56.00
2023-01-21T06:34:15.543Z,55.90
2023-01-21T06:36:42.888Z,55.90
2023-01-21T06:39:10.848Z,55.80
2023-01-21T06:41:37.831Z,55.80
2023-01-21T06:44:05.327Z,55.90
2023-01-21T06:46:32.581Z,55.80
2023-01-21T06:48:59.334Z,55.80
2023-01-21T06:51:26.064Z,55.80
2023-01-21T06:53:52.761Z,55.80
2023-01-21T06:56:19.635Z,55.80
2023-01-21T06:58:46.818Z,55.80
2023-01-21T07:01:14.117Z,55.70
2023-01-21T07:03:40.813Z,55.70
2023-01-21T07:06:07.546Z,55.90
2023-01-21T07:08:34.202Z,56.00
2023-01-21T07:11:01.981Z,56.10
2023-01-21T07:13:28.648Z,56.00
2023-01-21T07:15:59.855Z,56.10
2023-01-21T07:18:26.529Z,56.10
2023-01-21T07:20:53.202Z,56.10
2023-01-21T07:23:19.863Z,55.90
2023-01-21T07:25:46.532Z,55.80
2023-01-21T07:28:13.238Z,55.70
2023-01-21T07:30:39.974Z,55.60
2023-01-21T07:33:07.812Z,55.50
2023-01-21T07:35:35.227Z,55.50
2023-01-21T07:38:01.934Z,55.40
2023-01-21T07:40:28.763Z,55.50
2023-01-21T07:42:56.271Z,52.10
2023-01-21T07:45:22.978Z,52.30
2023-01-21T07:47:50.305Z,52.70
2023-01-21T07:50:19.375Z,52.40
2023-01-21T07:52:46.484Z,52.40
2023-01-21T07:55:13.147Z,53.10
2023-01-21T07:57:39.946Z,53.20
2023-01-21T08:00:07.510Z,53.20
2023-01-21T08:02:34.306Z,53.30
2023-01-21T08:05:01.569Z,53.10
2023-01-21T08:07:28.860Z,53.10
2023-01-21T08:09:56.101Z,52.30
2023-01-21T08:12:22.779Z,52.60
2023-01-21T08:14:49.510Z,52.80
2023-01-21T08:17:16.285Z,52.60
2023-01-21T08:19:42.969Z,52.70
2023-01-21T08:22:09.631Z,52.70
2023-01-21T08:24:36.382Z,52.90
2023-01-21T08:27:03.183Z,53.20
2023-01-21T08:29:29.853Z,53.30
2023-01-21T08:31:57.498Z,53.40
2023-01-21T08:34:24.229Z,53.50
2023-01-21T08:36:50.898Z,53.40
2023-01-21T08:39:17.648Z,53.60
2023-01-21T08:41:44.537Z,53.50
2023-01-21T08:44:11.484Z,53.60
2023-01-21T08:46:40.549Z,53.60
2023-01-21T08:49:07.298Z,53.70
2023-01-21T08:51:34.001Z,53.50
2023-01-21T08:54:00.686Z,53.30
2023-01-21T08:56:27.955Z,52.90
2023-01-21T08:58:55.651Z,53.00
2023-01-21T09:01:23.067Z,52.80
2023-01-21T09:03:54.012Z,52.70
2023-01-21T09:06:20.690Z,53.00
2023-01-21T09:08:47.887Z,52.90
2023-01-21T09:11:16.660Z,52.80
2023-01-21T09:13:46.204Z,52.80
2023-01-21T09:16:17.901Z,52.60
2023-01-21T09:18:45.242Z,52.60
2023-01-21T09:21:12.153Z,52.60
2023-01-21T09:23:39.694Z,52.70
2023-01-21T09:26:06.849Z,52.70
2023-01-21T09:28:34.719Z,52.70
2023-01-21T09:31:12.281Z,52.50
2023-01-21T09:33:39.995Z,52.50
2023-01-21T09:36:07.684Z,52.40
2023-01-21T09:38:35.125Z,52.60
2023-01-21T09:41:24.112Z,52.70
2023-01-21T09:44:17.721Z,52.80
2023-01-21T09:46:51.039Z,52.90
2023-01-21T09:49:44.034Z,53.70
2023-01-21T09:52:22.390Z,53.10
2023-01-21T09:54:49.090Z,53.20
2023-01-21T09:57:23.303Z,53.20
2023-01-21T09:59:59.136Z,53.20
2023-01-21T10:02:30.681Z,53.30
2023-01-21T10:05:06.696Z,53.30
2023-01-21T10:07:43.844Z,53.40
2023-01-21T10:10:28.399Z,53.40
2023-01-21T10:12:55.067Z,53.50
2023-01-21T10:15:35.149Z,53.50
2023-01-21T10:18:01.855Z,53.30
2023-01-21T10:20:47.311Z,53.40
2023-01-21T10:23:43.496Z,53.40
2023-01-21T10:26:12.693Z,53.60
2023-01-21T10:28:42.303Z,53.10
2023-01-21T10:31:18.798Z,53.20
2023-01-21T10:33:45.988Z,53.00
2023-01-21T10:36:18.745Z,52.90
2023-01-21T10:38:45.878Z,52.40
2023-01-21T10:41:12.486Z,52.50
2023-01-21T10:43:58.079Z,52.50
2023-01-21T10:46:37.367Z,52.40
2023-01-21T10:49:06.990Z,52.50
2023-01-21T10:51:45.147Z,52.20
2023-01-21T10:54:15.297Z,52.50
2023-01-21T10:56:49.097Z,52.60
2023-01-21T10:59:19.554Z,52.30
2023-01-21T11:01:48.173Z,52.40
2023-01-21T11:04:25.040Z,52.50
2023-01-21T11:06:59.327Z,52.50
2023-01-21T11:09:28.281Z,52.30
2023-01-21T11:11:55.099Z,52.30
2023-01-21T11:14:24.604Z,52.50
2023-01-21T11:16:52.163Z,52.70
2023-01-21T11:19:23.480Z,52.80
2023-01-21T11:22:04.269Z,52.90
2023-01-21T11:24:32.678Z,52.80
2023-01-21T11:27:00.766Z,52.90
2023-01-21T11:29:37.839Z,53.00
2023-01-21T11:32:20.997Z,52.80
2023-01-21T11:34:52.374Z,53.00
2023-01-21T11:37:24.759Z,52.70
2023-01-21T11:39:53.788Z,52.20
2023-01-21T11:42:20.692Z,52.20
2023-01-21T11:44:56.783Z,51.40
2023-01-21T11:47:38.323Z,51.10
2023-01-21T11:50:11.580Z,51.20
2023-01-21T11:52:38.302Z,51.10
2023-01-21T11:55:16.898Z,51.00
2023-01-21T11:57:47.068Z,50.80
2023-01-21T12:00:19.068Z,50.80
2023-01-21T12:02:49.475Z,50.70
2023-01-21T12:05:26.304Z,50.60
2023-01-21T12:07:53.270Z,50.50
2023-01-21T12:10:27.881Z,50.40
2023-01-21T12:13:01.061Z,50.40
2023-01-21T12:15:40.508Z,50.40
2023-01-21T12:18:17.477Z,50.40
2023-01-21T12:21:02.701Z,50.30
2023-01-21T12:24:01.778Z,50.80
2023-01-21T12:26:35.519Z,50.90
2023-01-21T12:29:20.736Z,51.10
2023-01-21T12:31:56.577Z,51.10
2023-01-21T12:34:23.292Z,51.10
2023-01-21T12:36:53.052Z,51.10
2023-01-21T12:39:21.639Z,51.10
2023-01-21T12:41:52.515Z,51.10
2023-01-21T12:44:21.956Z,51.30
2023-01-21T12:46:49.939Z,51.30
2023-01-21T12:49:24.460Z,51.50
2023-01-21T12:51:54.290Z,51.70
2023-01-21T12:54:20.939Z,51.70
2023-01-21T12:57:06.839Z,51.80
2023-01-21T12:59:38.521Z,52.00
2023-01-21T13:02:05.723Z,52.10
2023-01-21T13:04:51.855Z,52.30
2023-01-21T13:07:37.298Z,52.50
2023-01-21T13:10:16.390Z,52.90
2023-01-21T13:12:45.855Z,52.80
2023-01-21T13:15:12.469Z,52.90
2023-01-21T13:17:41.703Z,53.00
2023-01-21T13:20:13.448Z,53.00
2023-01-21T13:23:06.200Z,53.60
2023-01-21T13:25:35.838Z,53.00
2023-01-21T13:28:13.036Z,52.60
2023-01-21T13:30:58.531Z,52.70
2023-01-21T13:33:35.349Z,52.80
2023-01-21T13:36:20.646Z,52.90
2023-01-21T13:38:47.261Z,52.80
2023-01-21T13:41:17.456Z,52.80
2023-01-21T13:43:54.424Z,52.90
2023-01-21T13:46:39.896Z,53.00
2023-01-21T13:49:18.769Z,53.10
2023-01-21T13:51:57.309Z,53.20
2023-01-21T13:54:24.239Z,53.10
2023-01-21T13:56:53.889Z,53.20
2023-01-21T13:59:44.374Z,53.10
2023-01-21T14:02:18.018Z,53.00
2023-01-21T14:04:52.429Z,52.30
2023-01-21T14:07:25.022Z,52.20
2023-01-21T14:09:54.711Z,52.50
2023-01-21T14:12:40.352Z,52.60
2023-01-21T14:15:16.409Z,52.70
2023-01-21T14:17:43.196Z,52.80
2023-01-21T14:20:28.644Z,52.90
2023-01-21T14:22:58.433Z,53.00
2023-01-21T14:25:31.142Z,53.10
2023-01-21T14:28:22.556Z,53.20
2023-01-21T14:31:02.540Z,53.00
2023-01-21T14:33:35.318Z,53.10
2023-01-21T14:36:05.764Z,53.20
2023-01-21T14:38:33.087Z,53.10
2023-01-21T14:41:04.407Z,53.10
2023-01-21T14:43:31.106Z,53.10
2023-01-21T14:45:58.670Z,53.50
2023-01-21T14:48:35.965Z,53.40
2023-01-21T14:51:05.767Z,53.40
2023-01-21T14:53:49.756Z,53.50
2023-01-21T14:56:19.390Z,53.60
2023-01-21T14:58:47.500Z,53.80
2023-01-21T15:01:26.635Z,53.60
2023-01-21T15:03:53.513Z,53.70
2023-01-21T15:06:22.122Z,53.70
2023-01-21T15:08:53.725Z,53.60
2023-01-21T15:11:22.373Z,53.80
2023-01-21T15:14:00.847Z,53.80
2023-01-21T15:16:27.549Z,53.80
2023-01-21T15:19:09.257Z,53.90
2023-01-21T15:21:43.342Z,54.00
2023-01-21T15:24:23.133Z,53.90
2023-01-21T15:27:08.793Z,54.00
2023-01-21T15:29:37.410Z,54.10
2023-01-21T15:32:23.126Z,54.10
2023-01-21T15:34:51.517Z,54.10
2023-01-21T15:37:20.890Z,54.10
2023-01-21T15:39:48.890Z,54.10
2023-01-21T15:42:34.386Z,54.20
2023-01-21T15:45:20.347Z,54.30
2023-01-21T15:47:56.118Z,54.20
2023-01-21T15:50:30.830Z,54.10
2023-01-21T15:53:09.801Z,54.10
2023-01-21T15:55:49.234Z,54.10
2023-01-21T15:58:16.519Z,54.10
2023-01-21T16:00:43.172Z,54.10
2023-01-21T16:03:12.795Z,54.20
2023-01-21T16:05:50.044Z,54.10
2023-01-21T16:08:22.731Z,54.20
2023-01-21T16:10:52.583Z,54.30
2023-01-21T16:13:36.641Z,54.20
2023-01-21T16:16:09.301Z,54.20
2023-01-21T16:18:42.079Z,54.20
2023-01-21T16:21:08.999Z,54.20
2023-01-21T16:23:39.140Z,54.30
2023-01-21T16:26:05.881Z,54.30
2023-01-21T16:28:43.318Z,54.20
2023-01-21T16:31:10.945Z,54.20
2023-01-21T16:33:37.746Z,54.20
2023-01-21T16:36:07.927Z,54.20
2023-01-21T16:38:38.389Z,54.20
2023-01-21T16:41:08.036Z,54.20
2023-01-21T16:43:38.694Z,54.80
2023-01-21T16:46:06.125Z,54.60
2023-01-21T16:48:33.921Z,54.40
2023-01-21T16:51:01.143Z,54.30
2023-01-21T16:53:28.019Z,54.60
2023-01-21T16:55:58.479Z,54.40
2023-01-21T16:58:32.754Z,54.40
2023-01-21T17:01:00.880Z,54.90
2023-01-21T17:03:28.052Z,54.70
2023-01-21T17:05:55.644Z,54.70
2023-01-21T17:08:22.972Z,54.60
2023-01-21T17:10:52.389Z,54.70
2023-01-21T17:13:19.094Z,54.50
2023-01-21T17:16:12.073Z,54.60
2023-01-21T17:19:05.128Z,54.50
2023-01-21T17:21:46.024Z,54.60
2023-01-21T17:24:34.431Z,55.10
2023-01-21T17:27:09.414Z,54.90
2023-01-21T17:29:36.093Z,55.10
2023-01-21T17:32:04.572Z,55.20
2023-01-21T17:34:32.323Z,55.30
2023-01-21T17:36:59.689Z,55.10
2023-01-21T17:39:44.864Z,55.30
2023-01-21T17:42:19.037Z,55.30
2023-01-21T17:44:47.547Z,55.10
2023-01-21T17:47:22.463Z,55.30
2023-01-21T17:49:54.648Z,55.30
2023-01-21T17:52:22.355Z,55.30
2023-01-21T17:54:52.073Z,55.20
2023-01-21T17:57:35.956Z,55.20
2023-01-21T18:00:03.959Z,55.20
2023-01-21T18:02:30.929Z,55.20
2023-01-21T18:04:57.612Z,55.20
2023-01-21T18:07:29.817Z,55.20
2023-01-21T18:09:59.978Z,55.20
2023-01-21T18:12:26.659Z,55.10
2023-01-21T18:14:53.363Z,55.50
2023-01-21T18:17:21.994Z,55.40
2023-01-21T18:19:48.674Z,55.30
2023-01-21T18:22:23.532Z,55.30
2023-01-21T18:24:50.203Z,55.30
2023-01-21T18:27:17.311Z,55.30
2023-01-21T18:29:44.363Z,55.30
2023-01-21T18:32:15.178Z,55.30
2023-01-21T18:34:41.873Z,55.30
2023-01-21T18:37:14.107Z,55.30
2023-01-21T18:39:40.968Z,55.30
2023-01-21T18:42:11.717Z,55.30
2023-01-21T18:44:38.403Z,55.20
2023-01-21T18:47:15.871Z,55.20
2023-01-21T18:49:43.195Z,55.30
2023-01-21T18:52:10.351Z,55.30
2023-01-21T18:54:37.007Z,55.30
2023-01-21T18:57:03.739Z,55.20
2023-01-21T18:59:30.425Z,55.20
2023-01-21T19:01:57.234Z,55.20
2023-01-21T19:04:24.472Z,55.20
2023-01-21T19:06:53.234Z,55.00
2023-01-21T19:09:24.629Z,55.20
2023-01-21T19:11:52.080Z,55.10
2023-01-21T19:14:18.891Z,55.10
2023-01-21T19:16:45.772Z,55.00
2023-01-21T19:19:13.688Z,55.10
2023-01-21T19:21:40.375Z,55.70
2023-01-21T19:24:08.958Z,55.00
2023-01-21T19:26:37.893Z,55.10
2023-01-21T19:29:04.853Z,55.10
2023-01-21T19:31:32.760Z,55.10
2023-01-21T19:33:59.551Z,55.10
2023-01-21T19:36:28.982Z,55.10
2023-01-21T19:38:58.139Z,55.10
2023-01-21T19:41:25.803Z,55.10
2023-01-21T19:43:52.621Z,55.10
2023-01-21T19:46:20.189Z,55.10
2023-01-21T19:48:50.279Z,55.10
2023-01-21T19:51:17.097Z,55.10
2023-01-21T19:53:43.910Z,55.10
2023-01-21T19:56:14.684Z,55.10
2023-01-21T19:58:42.153Z,55.10
2023-01-21T20:01:08.848Z,55.10
2023-01-21T20:03:36.126Z,55.60
2023-01-21T20:06:05.713Z,55.10
2023-01-21T20:08:33.204Z,55.20
2023-01-21T20:11:00.411Z,55.10
2023-01-21T20:13:31.274Z,55.30
2023-01-21T20:16:01.699Z,55.20
2023-01-21T20:18:29.801Z,55.80
2023-01-21T20:20:57.007Z,55.20
2023-01-21T20:23:25.206Z,55.20
2023-01-21T20:25:53.225Z,55.20
2023-01-21T20:28:27.684Z,55.30
2023-01-21T20:30:54.795Z,55.30
2023-01-21T20:33:22.968Z,55.30
2023-01-21T20:35:51.016Z,55.30
2023-01-21T20:38:22.515Z,55.30
2023-01-21T20:40:49.200Z,55.30
2023-01-21T20:43:19.023Z,55.30
2023-01-21T20:45:48.476Z,55.20
2023-01-21T20:48:19.999Z,55.30
2023-01-21T20:50:47.570Z,55.30
2023-01-21T20:53:15.081Z,55.30
2023-01-21T20:55:45.723Z,55.30
2023-01-21T20:58:13.789Z,55.30
2023-01-21T21:00:40.694Z,55.30
2023-01-21T21:03:07.957Z,55.20
2023-01-21T21:05:35.183Z,55.20
2023-01-21T21:08:02.189Z,55.20
2023-01-21T21:10:31.949Z,55.20
2023-01-21T21:13:01.552Z,55.30
2023-01-21T21:15:29.983Z,55.30
2023-01-21T21:17:57.331Z,55.30
2023-01-21T21:20:25.329Z,55.40
2023-01-21T21:22:52.029Z,55.40
2023-01-21T21:25:23.258Z,55.40
2023-01-21T21:27:50.021Z,55.40
2023-01-21T21:30:26.530Z,55.40
2023-01-21T21:32:53.509Z,55.40
2023-01-21T21:35:20.130Z,55.40
2023-01-21T21:37:46.807Z,55.40
2023-01-21T21:40:13.635Z,55.40
2023-01-21T21:42:58.809Z,55.40
2023-01-21T21:45:25.984Z,55.50
2023-01-21T21:48:11.498Z,55.50
2023-01-21T21:50:38.157Z,55.40
2023-01-21T21:53:04.862Z,55.40
2023-01-21T21:55:31.966Z,55.40
2023-01-21T21:57:58.764Z,55.50
2023-01-21T22:00:26.022Z,55.50
2023-01-21T22:02:52.664Z,55.50
2023-01-21T22:05:20.103Z,55.50
2023-01-21T22:07:46.939Z,55.50
2023-01-21T22:10:13.989Z,55.50
2023-01-21T22:12:40.684Z,55.50
2023-01-21T22:15:07.633Z,55.50
2023-01-21T22:17:34.861Z,55.50
2023-01-21T22:20:02.015Z,55.50
2023-01-21T22:22:28.704Z,55.60
2023-01-21T22:24:55.353Z,55.70
2023-01-21T22:27:22.104Z,55.70
2023-01-21T22:29:48.748Z,55.60
2023-01-21T22:32:16.231Z,55.60
2023-01-21T22:34:44.046Z,55.60
2023-01-21T22:37:10.748Z,55.60
2023-01-21T22:39:37.434Z,55.60
2023-01-21T22:42:05.071Z,55.60
2023-01-21T22:44:31.877Z,55.50
2023-01-21T22:46:58.579Z,55.50
2023-01-21T22:49:25.292Z,55.60
2023-01-21T22:51:52.003Z,55.60
2023-01-21T22:54:18.754Z,55.60
2023-01-21T22:56:52.441Z,55.70
2023-01-21T22:59:19.928Z,55.60
2023-01-21T23:01:48.714Z,55.60
2023-01-21T23:04:17.325Z,55.60
2023-01-21T23:06:44.837Z,55.60
2023-01-21T23:09:17.903Z,55.60
2023-01-21T23:11:45.142Z,55.60
2023-01-21T23:14:12.095Z,56.20
2023-01-21T23:16:39.293Z,55.60
2023-01-21T23:19:05.961Z,55.60
2023-01-21T23:21:32.914Z,55.60
2023-01-21T23:23:59.619Z,55.50
2023-01-21T23:26:26.307Z,55.60
2023-01-21T23:28:59.352Z,55.60
2023-01-21T23:31:26.113Z,55.60
2023-01-21T23:33:54.126Z,55.60
2023-01-21T23:36:20.841Z,55.60
2023-01-21T23:38:47.700Z,55.60
2023-01-21T23:41:16.929Z,55.70
2023-01-21T23:43:43.817Z,55.70
2023-01-21T23:46:16.344Z,55.70
2023-01-21T23:48:43.169Z,55.70
2023-01-21T23:51:10.912Z,55.70
2023-01-21T23:53:37.597Z,55.70
2023-01-21T23:56:05.348Z,55.60
2023-01-21T23:58:32.020Z,55.50
